createdAt,value
2023-05-20T00:07:33.570Z,5.40
2023-05-20T00:17:41.369Z,3.70
2023-05-20T00:27:47.432Z,2.10
2023-05-20T00:37:52.113Z,1.90
2023-05-20T00:48:00.011Z,2.80
2023-05-20T00:58:05.037Z,1.90
2023-05-20T01:08:10.717Z,1.90
2023-05-20T01:18:22.731Z,2.00
2023-05-20T01:28:28.739Z,2.20
2023-05-20T01:38:33.214Z,2.80
2023-05-20T01:48:38.472Z,2.30
2023-05-20T01:58:42.189Z,2.50
2023-05-20T02:08:46.009Z,2.80
2023-05-20T02:18:51.922Z,3.00
2023-05-20T02:28:55.826Z,3.70
2023-05-20T02:39:01.451Z,3.30
2023-05-20T02:49:05.514Z,3.90
2023-05-20T02:59:11.620Z,3.20
2023-05-20T03:09:15.314Z,3.20
2023-05-20T03:19:20.063Z,6.20
2023-05-20T03:29:25.146Z,3.20
2023-05-20T03:39:29.370Z,3.70
2023-05-20T03:49:33.049Z,5.10
2023-05-20T03:59:39.026Z,3.90
2023-05-20T04:09:44.078Z,3.40
2023-05-20T04:19:47.781Z,4.20
2023-05-20T04:29:52.675Z,3.30
2023-05-20T04:39:58.858Z,3.30
2023-05-20T04:50:03.467Z,5.00
2023-05-20T05:00:11.074Z,3.60
2023-05-20T05:10:18.084Z,3.20
2023-05-20T05:20:22.206Z,3.20
2023-05-20T05:30:26.351Z,4.00
2023-05-20T05:40:32.123Z,3.20
2023-05-20T05:50:37.713Z,3.40
2023-05-20T06:00:43.838Z,3.60
2023-05-20T06:10:51.532Z,3.10
2023-05-20T06:20:57.542Z,3.20
2023-05-20T06:31:02.257Z,3.30
2023-05-20T06:41:09.674Z,3.20
2023-05-20T06:51:14.233Z,3.10
2023-05-20T07:01:18.481Z,3.60
2023-05-20T07:11:23.766Z,4.00
2023-05-20T07:21:28.075Z,3.50
2023-05-20T07:31:49.313Z,3.30
2023-05-20T07:41:54.059Z,4.40
2023-05-20T07:51:57.888Z,3.30
2023-05-20T08:02:04.273Z,3.10
2023-05-20T08:12:08.101Z,3.70
2023-05-20T08:22:13.299Z,3.60
2023-05-20T08:32:17.807Z,3.10
2023-05-20T08:42:29.589Z,3.90
2023-05-20T08:52:35.696Z,4.30
2023-05-20T09:02:40.381Z,5.00
2023-05-20T09:12:44.040Z,3.00
2023-05-20T09:22:55.464Z,3.10
2023-05-20T09:33:00.558Z,2.90
2023-05-20T09:43:11.436Z,3.20
2023-05-20T09:53:16.823Z,2.70
2023-05-20T10:03:30.675Z,2.70
2023-05-20T10:13:43.227Z,3.90
2023-05-20T10:23:46.857Z,3.40
2023-05-20T10:33:55.531Z,3.70
2023-05-20T10:44:05.895Z,3.60
2023-05-20T10:54:11.690Z,3.50
2023-05-20T11:04:20.066Z,3.60
2023-05-20T11:14:24.131Z,3.90
2023-05-20T11:24:29.247Z,4.20
2023-05-20T11:34:41.575Z,4.50
2023-05-20T11:44:45.803Z,4.60
2023-05-20T11:54:56.161Z,5.00
2023-05-20T12:04:59.853Z,5.10
2023-05-20T12:15:08.101Z,5.30
2023-05-20T12:25:15.674Z,6.80
2023-05-20T12:35:42.511Z,5.10
2023-05-20T12:45:46.636Z,5.60
2023-05-20T12:55:50.327Z,5.60
2023-05-20T13:05:56.342Z,5.50
2023-05-20T13:16:00.158Z,6.00
2023-05-20T13:26:05.488Z,5.50
2023-05-20T13:36:09.102Z,5.40
2023-05-20T13:46:14.939Z,5.10
2023-05-20T13:56:19.027Z,5.30
2023-05-20T14:06:22.690Z,5.00
2023-05-20T14:16:26.382Z,7.80
2023-05-20T14:26:30.091Z,5.90
2023-05-20T14:36:33.781Z,5.30
2023-05-20T14:46:38.335Z,5.70
2023-05-20T14:56:46.319Z,5.70
2023-05-20T15:06:52.461Z,5.90
2023-05-20T15:16:58.511Z,6.40
2023-05-20T15:27:02.463Z,6.00
2023-05-20T15:37:06.534Z,5.50
2023-05-20T15:47:14.222Z,5.50
2023-05-20T15:57:19.306Z,5.50
2023-05-20T16:07:23.290Z,5.50
2023-05-20T16:17:27.024Z,5.50
2023-05-20T16:27:32.815Z,6.00
2023-05-20T16:37:36.546Z,5.70
2023-05-20T16:47:40.277Z,5.50
2023-05-20T16:57:46.435Z,5.80
2023-05-20T17:07:50.085Z,5.50
2023-05-20T17:17:53.773Z,5.10
2023-05-20T17:27:57.443Z,5.00
2023-05-20T17:38:01.468Z,5.10
2023-05-20T17:48:11.565Z,5.50
2023-05-20T17:58:17.615Z,5.60
2023-05-20T18:08:25.477Z,5.80
2023-05-20T18:18:29.116Z,6.20
2023-05-20T18:28:33.155Z,5.70
2023-05-20T18:38:39.063Z,6.60
2023-05-20T18:48:44.260Z,8.50
2023-05-20T18:58:47.818Z,8.10
2023-05-20T19:08:51.613Z,14.50
2023-05-20T19:18:55.344Z,13.80
2023-05-20T19:28:58.968Z,14.20
2023-05-20T19:39:02.592Z,13.80
2023-05-20T19:49:06.855Z,12.20
2023-05-20T19:59:10.998Z,10.60
2023-05-20T20:09:14.811Z,9.60
2023-05-20T20:19:19.056Z,9.70
2023-05-20T20:29:25.207Z,9.90
2023-05-20T20:39:30.027Z,10.20
2023-05-20T20:49:35.379Z,10.00
2023-05-20T20:59:40.071Z,9.80
2023-05-20T21:09:45.764Z,10.20
2023-05-20T21:19:51.428Z,11.60
2023-05-20T21:29:56.823Z,15.30
2023-05-20T21:40:01.903Z,10.90
2023-05-20T21:50:06.707Z,10.20
2023-05-20T22:00:17.865Z,9.80
2023-05-20T22:10:23.365Z,10.40
2023-05-20T22:20:28.926Z,10.50
2023-05-20T22:30:38.514Z,10.60
2023-05-20T22:40:42.102Z,10.70
2023-05-20T22:50:45.779Z,11.00
2023-05-20T23:00:49.402Z,11.00
2023-05-20T23:10:53.091Z,10.80
2023-05-20T23:20:58.921Z,10.70
2023-05-20T23:31:07.048Z,10.60
2023-05-20T23:41:11.308Z,11.10
2023-05-20T23:51:14.942Z,10.60
